Time;durP1;ratioP1;P1;durP2;ratioP2;P2;SDS_P1;SDS_P2;PMS_P1;PMS_P2;Temp;Humidity;BMP_temperature;BMP_pressure;BME280_temperature;BME280_humidity;BME280_pressure;Samples;Min_cycle;Max_cycle;Signal;HPM_P1;HPM_P2
2022/09/13 00:02:23;;;;;;;12.30;11.40;;;17.10;99.90;;;;;;5056773;28;20506;-67
2022/09/13 00:04:49;;;;;;;11.40;10.87;;;17.10;99.90;;;;;;5055560;28;20495;-68
2022/09/13 00:07:16;;;;;;;12.10;11.10;;;17.00;99.90;;;;;;5056628;28;20466;-67
2022/09/13 00:09:45;;;;;;;12.87;11.87;;;17.00;99.90;;;;;;5059142;28;20954;-67
2022/09/13 00:12:12;;;;;;;12.30;11.60;;;17.00;99.90;;;;;;5056105;28;20467;-67
2022/09/13 00:14:39;;;;;;;11.73;11.03;;;17.00;99.90;;;;;;5053715;28;20825;-67
2022/09/13 00:17:06;;;;;;;12.27;11.57;;;17.10;99.90;;;;;;5059809;28;20468;-67
2022/09/13 00:19:33;;;;;;;11.23;10.63;;;17.20;99.90;;;;;;5057412;28;20524;-67
2022/09/13 00:22:02;;;;;;;11.80;11.20;;;17.20;99.90;;;;;;5057010;28;20490;-67
2022/09/13 00:24:29;;;;;;;11.57;10.97;;;17.30;99.90;;;;;;5058459;28;21009;-67
2022/09/13 00:26:57;;;;;;;12.00;11.40;;;17.40;99.90;;;;;;5053239;28;20471;-67
2022/09/13 00:29:24;;;;;;;11.37;10.77;;;17.40;99.90;;;;;;5056358;28;20827;-67
2022/09/13 00:31:51;;;;;;;11.67;11.07;;;17.40;99.90;;;;;;5059214;28;20466;-68
2022/09/13 00:34:18;;;;;;;12.10;11.40;;;17.50;99.90;;;;;;5059631;28;20456;-68
2022/09/13 00:36:44;;;;;;;12.77;12.10;;;17.50;99.90;;;;;;5059764;28;20467;-67
2022/09/13 00:39:13;;;;;;;12.57;11.97;;;17.50;99.90;;;;;;5059287;28;20501;-66
2022/09/13 00:41:40;;;;;;;13.17;12.30;;;17.60;99.90;;;;;;5061854;28;20458;-67
2022/09/13 00:44:40;;;;;;;12.53;11.63;;;17.60;99.90;;;;;;5057873;28;20468;-66
2022/09/13 00:47:11;;;;;;;11.47;10.77;;;17.60;99.90;;;;;;5058092;28;20537;-67
2022/09/13 00:49:41;;;;;;;12.93;12.10;;;17.50;99.90;;;;;;5061875;28;20459;-67
2022/09/13 00:52:12;;;;;;;12.00;11.40;;;17.50;99.90;;;;;;5053120;28;20463;-67
2022/09/13 00:54:42;;;;;;;12.73;11.93;;;17.50;99.90;;;;;;5059818;28;20465;-67
2022/09/13 00:57:12;;;;;;;12.50;11.70;;;17.40;99.90;;;;;;5058901;28;20835;-67
2022/09/13 00:59:43;;;;;;;12.70;12.00;;;17.50;99.90;;;;;;5051621;28;20462;-68
2022/09/13 01:02:13;;;;;;;13.97;12.77;;;17.50;99.90;;;;;;5059873;28;20481;-67
2022/09/13 01:04:40;;;;;;;12.40;11.40;;;17.60;99.90;;;;;;5059662;28;20490;-67
2022/09/13 01:07:10;;;;;;;12.73;11.83;;;17.50;99.90;;;;;;5061986;28;20972;-68
2022/09/13 01:09:38;;;;;;;12.10;11.50;;;17.50;99.90;;;;;;5050668;28;20455;-67
2022/09/13 01:12:10;;;;;;;12.57;11.77;;;17.60;99.90;;;;;;5059771;28;20451;-67
2022/09/13 01:14:38;;;;;;;12.37;11.77;;;17.70;99.90;;;;;;5057577;28;20464;-67
2022/09/13 01:17:07;;;;;;;12.27;11.47;;;17.80;99.90;;;;;;5056769;28;20462;-67
2022/09/13 01:19:36;;;;;;;13.50;12.73;;;17.90;99.90;;;;;;5055135;28;20486;-66
2022/09/13 01:22:35;;;;;;;12.80;12.00;;;17.90;99.90;;;;;;5055832;28;20467;-66
2022/09/13 01:25:27;;;;;;;12.10;11.27;;;17.90;99.90;;;;;;5054618;28;20514;-68
2022/09/13 01:28:13;;;;;;;11.83;11.23;;;17.90;99.90;;;;;;5052498;28;20496;-67
2022/09/13 01:30:50;;;;;;;11.60;10.90;;;17.90;99.90;;;;;;5054263;28;20470;-67
2022/09/13 01:33:31;;;;;;;12.47;11.50;;;17.90;99.90;;;;;;5050225;28;20548;-66
2022/09/13 01:36:20;;;;;;;11.90;11.30;;;17.90;99.90;;;;;;5058026;28;20997;-67
2022/09/13 01:38:57;;;;;;;12.47;11.57;;;17.90;99.90;;;;;;5054443;28;20478;-66
2022/09/13 01:41:48;;;;;;;11.80;11.10;;;18.00;99.90;;;;;;5056174;28;20546;-66
2022/09/13 01:44:27;;;;;;;12.63;11.80;;;18.00;99.90;;;;;;5059847;28;20965;-68
2022/09/13 01:47:02;;;;;;;12.30;11.60;;;17.90;99.90;;;;;;5056681;28;21046;-66
2022/09/13 01:49:36;;;;;;;12.60;11.70;;;17.90;99.90;;;;;;5056623;28;20957;-67
2022/09/13 01:52:07;;;;;;;11.73;11.13;;;18.00;99.90;;;;;;5057882;28;20479;-67
2022/09/13 01:54:41;;;;;;;12.77;11.70;;;18.20;99.90;;;;;;5059185;28;20467;-66
2022/09/13 01:57:15;;;;;;;11.90;11.20;;;18.20;99.90;;;;;;5057515;28;20738;-67
2022/09/13 01:59:50;;;;;;;13.20;12.03;;;18.30;99.90;;;;;;5062479;28;20490;-67
2022/09/13 02:02:22;;;;;;;12.90;12.00;;;18.40;99.90;;;;;;5053788;28;20474;-66
2022/09/13 02:04:54;;;;;;;12.33;11.63;;;18.50;99.90;;;;;;5055869;28;20476;-66
2022/09/13 02:07:26;;;;;;;12.13;11.43;;;18.60;99.90;;;;;;5062665;28;20538;-66
2022/09/13 02:09:59;;;;;;;12.37;11.77;;;18.60;99.90;;;;;;5056908;28;20554;-67
2022/09/13 02:12:30;;;;;;;12.20;11.60;;;18.70;99.90;;;;;;5060678;28;20474;-66
2022/09/13 02:15:02;;;;;;;13.10;12.30;;;18.80;99.90;;;;;;5059699;28;20486;-67
2022/09/13 02:17:37;;;;;;;13.90;12.93;;;18.90;99.90;;;;;;5055972;28;20459;-67
2022/09/13 02:20:08;;;;;;;12.97;12.37;;;19.00;99.90;;;;;;5057814;28;20544;-66
2022/09/13 02:22:41;;;;;;;12.43;11.83;;;19.10;99.90;;;;;;5055637;28;21036;-67
2022/09/13 02:25:12;;;;;;;12.83;12.13;;;19.10;99.90;;;;;;5056161;28;20455;-68
2022/09/13 02:27:43;;;;;;;13.33;12.40;;;19.10;99.90;;;;;;5053969;28;20487;-67
2022/09/13 02:30:12;;;;;;;12.63;11.93;;;19.10;99.90;;;;;;5060993;28;20855;-67
2022/09/13 02:32:43;;;;;;;13.43;12.50;;;19.10;99.90;;;;;;5053979;28;20513;-68
2022/09/13 02:35:17;;;;;;;13.27;12.47;;;19.10;99.90;;;;;;5057467;28;20499;-68
2022/09/13 02:37:50;;;;;;;12.80;12.20;;;19.10;99.90;;;;;;5054957;28;20514;-67
2022/09/13 02:40:22;;;;;;;13.37;12.50;;;19.10;99.90;;;;;;5053534;28;20855;-67
2022/09/13 02:42:54;;;;;;;12.97;12.07;;;19.10;99.90;;;;;;5062256;28;21077;-67
2022/09/13 02:45:25;;;;;;;12.50;11.80;;;19.10;99.90;;;;;;5051715;28;20518;-68
2022/09/13 02:47:58;;;;;;;13.43;12.63;;;19.10;99.90;;;;;;5060850;28;20461;-67
2022/09/13 02:50:37;;;;;;;13.30;12.60;;;19.10;99.90;;;;;;5054752;28;20473;-68
2022/09/13 02:53:14;;;;;;;14.33;13.10;;;19.20;99.90;;;;;;5053787;28;20459;-67
2022/09/13 02:55:51;;;;;;;13.07;12.37;;;19.20;99.90;;;;;;5056084;28;20498;-69
2022/09/13 02:58:25;;;;;;;12.50;11.90;;;19.20;99.90;;;;;;5048950;28;20467;-68
2022/09/13 03:00:52;;;;;;;12.97;12.30;;;19.20;99.90;;;;;;5054283;28;20933;-68
2022/09/13 03:03:21;;;;;;;12.63;12.03;;;19.10;99.90;;;;;;5056683;28;20507;-68
2022/09/13 03:05:49;;;;;;;12.60;12.00;;;19.10;99.90;;;;;;5056397;28;20540;-68
2022/09/13 03:08:17;;;;;;;13.10;12.40;;;19.10;99.90;;;;;;5052376;28;20464;-68
2022/09/13 03:10:57;;;;;;;13.90;13.00;;;19.00;99.90;;;;;;5053784;28;20947;-68
2022/09/13 03:13:52;;;;;;;13.27;12.37;;;19.00;99.90;;;;;;5051530;28;20570;-67
2022/09/13 03:16:36;;;;;;;13.60;12.60;;;19.00;99.90;;;;;;5053481;28;20566;-67
2022/09/13 03:19:22;;;;;;;13.37;12.70;;;18.90;99.90;;;;;;5047669;28;20490;-68
2022/09/13 03:22:07;;;;;;;13.10;12.40;;;18.80;99.90;;;;;;5047584;28;21008;-66
2022/09/13 03:24:44;;;;;;;12.60;12.00;;;18.80;99.90;;;;;;5049389;28;20499;-67
2022/09/13 03:27:22;;;;;;;12.87;12.07;;;18.60;99.90;;;;;;5055404;28;20459;-66
2022/09/13 03:29:56;;;;;;;12.70;12.00;;;18.60;99.90;;;;;;5053001;28;20474;-68
2022/09/13 03:32:32;;;;;;;12.00;11.30;;;18.50;99.90;;;;;;5056324;28;20462;-69
2022/09/13 03:35:06;;;;;;;11.93;11.13;;;18.50;99.90;;;;;;5056335;28;20897;-67
2022/09/13 03:37:42;;;;;;;13.13;12.27;;;18.50;99.90;;;;;;5055099;28;20958;-69
2022/09/13 03:40:12;;;;;;;12.13;11.43;;;18.50;99.90;;;;;;5056619;28;20458;-67
2022/09/13 03:42:43;;;;;;;12.50;11.80;;;18.50;99.90;;;;;;5057571;28;21030;-67
2022/09/13 03:45:12;;;;;;;12.20;11.40;;;18.50;99.90;;;;;;5062106;28;20478;-67
2022/09/13 03:47:43;;;;;;;12.90;12.10;;;18.50;99.90;;;;;;5052824;28;20836;-68
2022/09/13 03:50:18;;;;;;;13.10;12.30;;;18.50;99.90;;;;;;5055823;28;20518;-69
2022/09/13 03:52:46;;;;;;;11.87;11.27;;;18.50;99.90;;;;;;5055924;28;20468;-69
2022/09/13 03:55:13;;;;;;;12.50;11.90;;;18.50;99.90;;;;;;5056187;28;20468;-69
2022/09/13 03:57:40;;;;;;;13.03;12.23;;;18.50;99.90;;;;;;5056798;28;20839;-68
2022/09/13 04:00:09;;;;;;;13.00;12.20;;;18.60;99.90;;;;;;5058878;28;20466;-69
2022/09/13 04:02:35;;;;;;;13.63;12.57;;;18.40;99.90;;;;;;5052951;28;20533;-68
2022/09/13 04:05:03;;;;;;;14.03;13.20;;;18.30;99.90;;;;;;5061774;28;20482;-67
2022/09/13 04:07:32;;;;;;;13.87;12.70;;;18.30;99.90;;;;;;5054310;28;20496;-68
2022/09/13 04:09:58;;;;;;;17.07;13.63;;;18.40;99.90;;;;;;5047215;28;20740;-67
2022/09/13 04:12:25;;;;;;;13.20;12.40;;;18.40;99.90;;;;;;5051516;28;21379;-68
2022/09/13 04:14:53;;;;;;;13.50;12.70;;;18.40;99.90;;;;;;5053329;28;20497;-68
2022/09/13 04:17:20;;;;;;;13.10;12.30;;;18.40;99.90;;;;;;5051055;28;20572;-67
2022/09/13 04:19:48;;;;;;;13.70;12.80;;;18.40;99.90;;;;;;5052436;28;20472;-68
2022/09/13 04:22:15;;;;;;;13.10;12.10;;;18.40;99.90;;;;;;5053105;28;20517;-68
2022/09/13 04:24:44;;;;;;;13.30;12.43;;;18.30;99.90;;;;;;5059186;28;20483;-68
2022/09/13 04:27:11;;;;;;;13.60;12.60;;;18.30;99.90;;;;;;5053369;28;20463;-68
2022/09/13 04:29:38;;;;;;;13.50;12.60;;;18.30;99.90;;;;;;5054159;28;20868;-67
2022/09/13 04:32:05;;;;;;;13.30;12.50;;;18.30;99.90;;;;;;5055582;28;20778;-67
2022/09/13 04:34:33;;;;;;;13.07;12.27;;;18.30;99.90;;;;;;5050637;28;20828;-68
2022/09/13 04:37:00;;;;;;;13.73;12.60;;;18.40;99.90;;;;;;5049906;28;20496;-67
2022/09/13 04:39:27;;;;;;;13.43;12.73;;;18.40;99.90;;;;;;5051314;28;22326;-67
2022/09/13 04:41:55;;;;;;;13.63;12.73;;;18.40;99.90;;;;;;5060562;28;20466;-68
2022/09/13 04:44:23;;;;;;;13.27;12.43;;;18.30;99.90;;;;;;5057604;28;20495;-67
2022/09/13 04:46:51;;;;;;;13.60;12.33;;;18.30;99.90;;;;;;5053824;28;20459;-68
2022/09/13 04:49:20;;;;;;;14.00;12.97;;;18.30;99.90;;;;;;5059147;28;20497;-69
2022/09/13 04:51:48;;;;;;;12.97;12.23;;;18.30;99.90;;;;;;5050856;28;20471;-67
2022/09/13 04:54:17;;;;;;;13.20;12.13;;;18.30;99.90;;;;;;5055184;28;20553;-69
2022/09/13 04:56:45;;;;;;;13.30;12.40;;;18.30;99.90;;;;;;5056805;28;20458;-67
2022/09/13 04:59:13;;;;;;;12.50;11.90;;;18.30;99.90;;;;;;5055065;28;20885;-67
2022/09/13 05:01:40;;;;;;;12.93;12.23;;;18.40;99.90;;;;;;5053872;28;20474;-67
2022/09/13 05:04:08;;;;;;;13.27;12.57;;;18.40;99.90;;;;;;5056626;28;20490;-67
2022/09/13 05:06:35;;;;;;;13.47;12.63;;;18.30;99.90;;;;;;5062946;28;20993;-67
2022/09/13 05:09:04;;;;;;;12.20;11.40;;;18.30;99.90;;;;;;5057504;28;20533;-67
2022/09/13 05:11:31;;;;;;;14.10;13.20;;;18.30;99.90;;;;;;5049262;28;20984;-68
2022/09/13 05:14:00;;;;;;;13.60;12.63;;;18.20;99.90;;;;;;5054907;28;20460;-67
2022/09/13 05:16:30;;;;;;;13.47;12.57;;;18.20;99.90;;;;;;5056512;28;20566;-67
2022/09/13 05:18:58;;;;;;;13.40;12.50;;;18.10;99.90;;;;;;5051674;28;20498;-67
2022/09/13 05:21:26;;;;;;;13.30;12.60;;;18.10;99.90;;;;;;5053589;28;20574;-69
2022/09/13 05:23:54;;;;;;;14.97;13.50;;;18.10;99.90;;;;;;5060058;28;20910;-67
2022/09/13 05:26:22;;;;;;;13.73;12.50;;;18.10;99.90;;;;;;5051353;28;20459;-68
2022/09/13 05:28:49;;;;;;;13.20;12.47;;;18.20;99.90;;;;;;5057434;28;20468;-69
2022/09/13 05:31:18;;;;;;;12.37;11.67;;;18.30;99.90;;;;;;5055322;28;20512;-67
2022/09/13 05:33:52;;;;;;;13.27;12.57;;;18.30;99.90;;;;;;5053146;28;20466;-68
2022/09/13 05:36:18;;;;;;;14.20;13.20;;;18.30;99.90;;;;;;5052567;28;20474;-67
2022/09/13 05:38:46;;;;;;;14.20;13.20;;;18.40;99.90;;;;;;5056146;28;20479;-67
2022/09/13 05:41:13;;;;;;;13.73;12.83;;;18.40;99.90;;;;;;5055282;28;20832;-68
2022/09/13 05:43:40;;;;;;;13.70;12.90;;;18.50;99.90;;;;;;5050227;28;20583;-66
2022/09/13 05:46:09;;;;;;;14.50;13.50;;;18.50;99.90;;;;;;5054245;28;20916;-68
2022/09/13 05:48:37;;;;;;;13.23;12.53;;;18.50;99.90;;;;;;5058849;28;20459;-68
2022/09/13 05:51:09;;;;;;;14.87;13.47;;;18.50;99.90;;;;;;5055449;28;20464;-66
2022/09/13 05:53:36;;;;;;;12.80;12.00;;;18.50;99.90;;;;;;5047941;28;20471;-67
2022/09/13 05:56:04;;;;;;;13.43;12.63;;;18.50;99.90;;;;;;5056897;28;20467;-68
2022/09/13 05:58:31;;;;;;;13.87;13.03;;;18.50;99.90;;;;;;5049658;28;20533;-67
2022/09/13 06:00:58;;;;;;;14.63;12.50;;;18.40;99.90;;;;;;5048381;28;20541;-68
2022/09/13 06:03:24;;;;;;;13.93;13.17;;;18.40;99.90;;;;;;5059627;28;20471;-68
2022/09/13 06:05:55;;;;;;;13.73;12.93;;;18.40;99.90;;;;;;5052199;28;20498;-68
2022/09/13 06:08:23;;;;;;;13.93;12.80;;;18.30;99.90;;;;;;5059073;28;20467;-67
2022/09/13 06:10:57;;;;;;;12.87;12.17;;;18.30;99.90;;;;;;5052151;28;20463;-67
2022/09/13 06:13:26;;;;;;;15.00;13.77;;;18.40;99.90;;;;;;5053413;28;20460;-67
2022/09/13 06:15:55;;;;;;;13.97;13.17;;;18.60;99.90;;;;;;5054519;28;20826;-67
2022/09/13 06:18:25;;;;;;;14.20;13.40;;;18.80;99.90;;;;;;5048518;28;20467;-68
2022/09/13 06:20:58;;;;;;;13.70;12.57;;;18.80;99.90;;;;;;5059778;28;20501;-67
2022/09/13 06:23:26;;;;;;;14.23;13.23;;;18.80;99.90;;;;;;5051728;28;20556;-67
2022/09/13 06:26:01;;;;;;;14.33;13.40;;;19.00;99.90;;;;;;5047183;28;20776;-68
2022/09/13 06:28:27;;;;;;;14.23;13.43;;;19.10;99.90;;;;;;5057967;28;20467;-68
2022/09/13 06:31:01;;;;;;;14.33;13.53;;;19.10;99.90;;;;;;5055797;28;20460;-68
2022/09/13 06:33:27;;;;;;;14.30;13.30;;;19.30;99.90;;;;;;5047826;28;20537;-67
2022/09/13 06:35:54;;;;;;;13.67;12.80;;;19.30;99.90;;;;;;5058667;28;20459;-69
2022/09/13 06:38:22;;;;;;;14.00;13.03;;;19.40;99.90;;;;;;5046874;28;20860;-69
2022/09/13 06:40:59;;;;;;;15.57;14.27;;;19.40;99.90;;;;;;5048328;28;20496;-68
2022/09/13 06:43:26;;;;;;;15.63;14.23;;;19.50;99.90;;;;;;5053258;28;20546;-68
2022/09/13 06:45:53;;;;;;;15.73;14.57;;;19.40;99.90;;;;;;5060676;28;20459;-67
2022/09/13 06:48:20;;;;;;;15.67;14.33;;;19.60;99.90;;;;;;5056505;28;20466;-68
2022/09/13 06:50:47;;;;;;;15.13;14.40;;;19.80;99.90;;;;;;5054803;28;20483;-68
2022/09/13 06:53:14;;;;;;;15.43;14.53;;;19.80;99.90;;;;;;5053716;28;20460;-68
2022/09/13 06:55:40;;;;;;;17.00;15.27;;;19.90;99.90;;;;;;5052822;28;20476;-67
2022/09/13 06:58:08;;;;;;;16.40;15.20;;;19.90;99.90;;;;;;5046323;28;20475;-69
2022/09/13 07:00:37;;;;;;;16.17;15.00;;;20.00;99.90;;;;;;5049531;28;20463;-69
2022/09/13 07:03:03;;;;;;;16.03;15.10;;;20.20;99.90;;;;;;5050990;28;20495;-67
2022/09/13 07:05:31;;;;;;;16.23;15.23;;;20.30;99.90;;;;;;5050177;28;21015;-68
2022/09/13 07:07:58;;;;;;;15.90;14.80;;;20.30;99.90;;;;;;5057375;28;20902;-68
2022/09/13 07:10:25;;;;;;;16.80;15.60;;;20.50;99.90;;;;;;5055718;28;20462;-69
2022/09/13 07:12:52;;;;;;;16.20;15.40;;;20.60;99.90;;;;;;5053067;28;20516;-67
2022/09/13 07:15:20;;;;;;;16.90;15.67;;;20.70;99.90;;;;;;5055466;28;20499;-67
2022/09/13 07:17:47;;;;;;;17.00;15.80;;;20.80;99.90;;;;;;5051542;28;20976;-69
2022/09/13 07:20:14;;;;;;;16.77;15.47;;;21.00;99.90;;;;;;5048016;28;20463;-69
2022/09/13 07:22:41;;;;;;;17.53;16.43;;;21.10;99.90;;;;;;5051420;28;20589;-67
2022/09/13 07:25:10;;;;;;;16.67;15.57;;;21.30;99.90;;;;;;5052394;28;20819;-68
2022/09/13 07:27:39;;;;;;;16.83;15.60;;;21.50;99.90;;;;;;5052829;28;20503;-67
2022/09/13 07:30:07;;;;;;;16.70;15.80;;;21.60;99.90;;;;;;5051431;28;20559;-67
2022/09/13 07:32:36;;;;;;;16.87;15.50;;;21.70;99.90;;;;;;5050345;28;20693;-67
2022/09/13 07:35:05;;;;;;;17.03;15.70;;;21.80;99.90;;;;;;5057723;28;20464;-69
2022/09/13 07:37:32;;;;;;;16.37;15.37;;;21.80;99.90;;;;;;5053067;28;20452;-68
2022/09/13 07:40:00;;;;;;;16.93;15.93;;;21.90;99.90;;;;;;5053981;28;20459;-68
2022/09/13 07:42:27;;;;;;;16.27;15.47;;;22.00;99.90;;;;;;5055275;28;20466;-68
2022/09/13 07:44:54;;;;;;;16.83;15.60;;;22.10;99.90;;;;;;5055888;28;20494;-68
2022/09/13 07:47:21;;;;;;;16.40;15.60;;;22.00;99.90;;;;;;5055140;28;20468;-68
2022/09/13 07:49:50;;;;;;;17.37;15.90;;;22.20;99.90;;;;;;5052128;28;21140;-68
2022/09/13 07:52:17;;;;;;;16.37;15.37;;;22.30;99.90;;;;;;5064065;28;20470;-68
2022/09/13 07:54:47;;;;;;;17.37;16.03;;;22.20;99.90;;;;;;5053154;28;20497;-69
2022/09/13 07:57:13;;;;;;;15.83;15.03;;;22.30;99.90;;;;;;5050515;28;20543;-68
2022/09/13 07:59:40;;;;;;;16.10;15.30;;;22.30;99.90;;;;;;5056745;28;20464;-68
2022/09/13 08:02:10;;;;;;;17.10;15.50;;;22.40;99.90;;;;;;5056941;28;20464;-68
2022/09/13 08:04:38;;;;;;;17.07;15.87;;;22.70;99.90;;;;;;5054391;28;20510;-68
2022/09/13 08:07:07;;;;;;;18.13;16.40;;;22.70;99.90;;;;;;5051119;28;20530;-67
2022/09/13 08:09:33;;;;;;;17.67;16.63;;;22.70;99.90;;;;;;5054396;28;20467;-69
2022/09/13 08:12:00;;;;;;;17.87;16.50;;;23.00;99.90;;;;;;5052642;28;21044;-68
2022/09/13 08:14:27;;;;;;;17.20;16.30;;;23.20;99.90;;;;;;5048412;28;21148;-68
2022/09/13 08:16:56;;;;;;;17.27;16.10;;;23.40;99.90;;;;;;5051830;28;20483;-67
2022/09/13 08:19:23;;;;;;;17.87;16.67;;;23.60;99.90;;;;;;5049991;28;20557;-65
2022/09/13 08:21:51;;;;;;;18.13;17.00;;;23.60;99.90;;;;;;5052376;28;20478;-66
2022/09/13 08:24:21;;;;;;;18.80;17.27;;;23.60;99.90;;;;;;5053303;28;20494;-65
2022/09/13 08:26:48;;;;;;;18.23;16.73;;;23.70;99.90;;;;;;5057418;28;20913;-65
2022/09/13 08:29:16;;;;;;;17.13;15.80;;;23.90;99.90;;;;;;5064144;28;20574;-67
2022/09/13 08:31:43;;;;;;;17.77;16.67;;;23.90;99.90;;;;;;5053966;28;20998;-66
2022/09/13 08:34:13;;;;;;;17.07;16.07;;;24.10;99.90;;;;;;5058654;28;21134;-66
2022/09/13 08:36:40;;;;;;;17.57;16.10;;;24.00;99.90;;;;;;5057185;28;20467;-66
2022/09/13 08:39:08;;;;;;;16.97;15.77;;;23.80;99.90;;;;;;5055812;28;20491;-66
2022/09/13 08:42:03;;;;;;;18.40;16.93;;;23.70;99.90;;;;;;5057244;28;20808;-66
2022/09/13 08:44:33;;;;;;;18.67;17.20;;;23.50;99.90;;;;;;5053476;28;20483;-67
2022/09/13 08:47:14;;;;;;;17.63;16.53;;;23.50;99.90;;;;;;5053418;28;20459;-66
2022/09/13 08:49:45;;;;;;;17.80;16.70;;;23.60;99.90;;;;;;5056358;28;20821;-66
2022/09/13 08:52:20;;;;;;;19.03;17.23;;;23.40;99.90;;;;;;5058594;28;20463;-66
2022/09/13 08:54:48;;;;;;;17.97;16.57;;;23.60;99.90;;;;;;5050216;28;20638;-66
2022/09/13 08:57:22;;;;;;;18.20;16.87;;;23.60;99.90;;;;;;5056270;28;20491;-68
2022/09/13 08:59:59;;;;;;;18.00;16.60;;;23.60;99.90;;;;;;5057918;28;20965;-67
2022/09/13 09:02:44;;;;;;;18.33;17.20;;;23.50;99.90;;;;;;5055202;28;20942;-68
2022/09/13 09:05:17;;;;;;;18.20;17.10;;;23.50;99.90;;;;;;5057436;28;20503;-67
2022/09/13 09:07:47;;;;;;;18.70;17.40;;;23.50;99.90;;;;;;5055750;28;20472;-68
2022/09/13 09:10:17;;;;;;;18.67;17.23;;;23.40;99.90;;;;;;5055302;28;20485;-67
2022/09/13 09:12:49;;;;;;;17.60;16.60;;;23.50;99.90;;;;;;5059589;28;20455;-67
2022/09/13 09:15:19;;;;;;;17.90;16.90;;;23.70;99.90;;;;;;5057038;28;20514;-67
2022/09/13 09:17:51;;;;;;;17.80;16.70;;;23.80;99.90;;;;;;5050155;28;20544;-68
2022/09/13 09:20:27;;;;;;;18.93;17.53;;;24.00;99.90;;;;;;5056693;28;20494;-66
2022/09/13 09:22:55;;;;;;;18.60;17.40;;;24.30;99.90;;;;;;5056840;28;20541;-68
2022/09/13 09:25:25;;;;;;;18.90;17.80;;;24.40;99.90;;;;;;5054635;28;21010;-67
2022/09/13 09:27:56;;;;;;;18.90;17.50;;;24.90;99.90;;;;;;5052901;28;20661;-68
2022/09/13 09:30:23;;;;;;;19.20;17.50;;;25.70;99.90;;;;;;5048512;28;20470;-67
2022/09/13 09:33:19;;;;;;;19.87;18.40;;;26.10;99.90;;;;;;5050671;28;20494;-67
2022/09/13 09:35:54;;;;;;;20.23;18.70;;;25.70;99.90;;;;;;5058648;28;20517;-66
2022/09/13 09:38:33;;;;;;;19.27;18.10;;;26.00;99.90;;;;;;5055383;28;20459;-67
2022/09/13 09:41:07;;;;;;;19.67;18.37;;;26.40;99.90;;;;;;5054826;28;20467;-68
2022/09/13 09:43:41;;;;;;;20.87;19.37;;;26.70;99.90;;;;;;5053298;28;20970;-67
2022/09/13 09:46:10;;;;;;;18.70;17.53;;;27.10;99.90;;;;;;5057479;28;20998;-68
2022/09/13 09:48:43;;;;;;;19.40;18.20;;;27.40;99.90;;;;;;5056451;28;20460;-67
2022/09/13 09:51:14;;;;;;;20.30;18.90;;;27.80;99.90;;;;;;5053393;28;20471;-67
2022/09/13 09:53:46;;;;;;;20.43;19.10;;;27.80;99.90;;;;;;5054576;28;20464;-69
2022/09/13 09:56:23;;;;;;;20.00;18.70;;;27.90;99.90;;;;;;5053171;28;20464;-67
2022/09/13 09:58:53;;;;;;;21.03;19.43;;;28.20;99.90;;;;;;5052509;28;20551;-67
2022/09/13 10:01:24;;;;;;;19.93;18.60;;;27.80;99.90;;;;;;5052720;28;20464;-68
2022/09/13 10:03:54;;;;;;;18.77;17.57;;;28.10;99.90;;;;;;5053815;28;20491;-69
2022/09/13 10:06:23;;;;;;;20.57;19.37;;;28.80;99.90;;;;;;5051920;28;20505;-68
2022/09/13 10:08:57;;;;;;;18.93;17.73;;;28.70;99.90;;;;;;5052881;28;20533;-67
2022/09/13 10:11:26;;;;;;;19.87;18.40;;;28.90;99.90;;;;;;5050551;28;20462;-67
2022/09/13 10:14:01;;;;;;;19.43;18.17;;;29.30;99.50;;;;;;5048899;28;20961;-68
2022/09/13 10:16:30;;;;;;;21.07;19.33;;;29.80;99.10;;;;;;5054192;28;20927;-67
2022/09/13 10:19:23;;;;;;;20.83;19.43;;;30.70;97.00;;;;;;5056667;28;20469;-68
2022/09/13 10:22:01;;;;;;;21.17;19.57;;;30.00;96.90;;;;;;5055395;28;20467;-67
2022/09/13 10:24:29;;;;;;;19.27;17.97;;;29.30;97.90;;;;;;5048859;28;20755;-68
2022/09/13 10:26:56;;;;;;;20.30;18.87;;;29.30;97.00;;;;;;5054458;28;20571;-67
2022/09/13 10:29:26;;;;;;;20.00;18.80;;;28.60;98.50;;;;;;5060125;28;20486;-67
2022/09/13 10:31:56;;;;;;;20.90;19.50;;;28.00;99.40;;;;;;5061152;28;20507;-68
2022/09/13 10:34:26;;;;;;;19.77;18.00;;;28.30;98.90;;;;;;5055541;28;20465;-67
2022/09/13 10:36:56;;;;;;;20.73;19.37;;;28.50;98.60;;;;;;5053407;28;20463;-68
2022/09/13 10:39:24;;;;;;;18.80;17.70;;;28.90;97.90;;;;;;5048152;28;20475;-67
2022/09/13 10:41:54;;;;;;;20.30;19.00;;;28.90;97.60;;;;;;5057126;28;20885;-68
2022/09/13 10:44:32;;;;;;;20.57;19.10;;;28.90;97.80;;;;;;5053250;28;20472;-68
2022/09/13 10:47:03;;;;;;;19.67;18.37;;;28.90;97.50;;;;;;5052937;28;20816;-67
2022/09/13 10:49:45;;;;;;;18.80;17.80;;;28.50;97.80;;;;;;5057124;28;20463;-67
2022/09/13 10:52:29;;;;;;;19.97;18.40;;;28.50;98.40;;;;;;5050758;28;20505;-68
2022/09/13 10:55:15;;;;;;;20.43;19.23;;;28.50;97.40;;;;;;5056071;28;20864;-68
2022/09/13 10:57:43;;;;;;;20.93;19.23;;;28.80;97.40;;;;;;5051593;28;20464;-67
2022/09/13 11:00:14;;;;;;;21.63;20.07;;;29.10;97.70;;;;;;5050756;28;20550;-67
2022/09/13 11:02:59;;;;;;;20.87;19.27;;;29.30;97.90;;;;;;5057777;28;20459;-68
2022/09/13 11:05:36;;;;;;;19.57;18.47;;;29.70;97.00;;;;;;5053311;28;20503;-68
2022/09/13 11:08:15;;;;;;;20.10;18.80;;;29.50;97.50;;;;;;5053447;28;20836;-69
2022/09/13 11:10:53;;;;;;;19.03;17.93;;;29.70;96.10;;;;;;5050038;28;20466;-68
2022/09/13 11:13:29;;;;;;;20.20;18.90;;;29.90;94.80;;;;;;5053472;28;20467;-68
2022/09/13 11:16:04;;;;;;;18.40;17.20;;;30.30;94.00;;;;;;5053177;28;20489;-68
2022/09/13 11:18:46;;;;;;;19.70;18.40;;;30.40;94.10;;;;;;5052558;28;20472;-68
2022/09/13 11:21:30;;;;;;;20.37;18.90;;;29.90;93.90;;;;;;5054921;28;20461;-68
2022/09/13 11:24:22;;;;;;;18.70;17.70;;;30.00;93.50;;;;;;5054087;28;20455;-69
2022/09/13 11:27:00;;;;;;;19.57;18.27;;;30.30;94.50;;;;;;5044243;28;20997;-68
2022/09/13 11:29:50;;;;;;;18.67;17.57;;;30.70;92.60;;;;;;5046845;28;20464;-67
2022/09/13 11:32:31;;;;;;;18.23;17.13;;;30.40;93.00;;;;;;5051311;28;20495;-68
2022/09/13 11:35:27;;;;;;;18.57;17.33;;;30.80;93.10;;;;;;5046433;28;20784;-68
2022/09/13 11:38:01;;;;;;;19.57;18.37;;;31.10;92.90;;;;;;5053399;28;20459;-67
2022/09/13 11:40:40;;;;;;;20.17;18.67;;;31.60;90.20;;;;;;5053369;28;20943;-69
2022/09/13 11:43:21;;;;;;;20.33;19.03;;;32.00;90.80;;;;;;5057327;28;20508;-67
2022/09/13 11:45:59;;;;;;;18.63;17.60;;;32.50;88.50;;;;;;5053858;28;20845;-67
2022/09/13 11:48:51;;;;;;;18.90;17.70;;;33.20;86.50;;;;;;5044002;28;20914;-68
2022/09/13 11:51:30;;;;;;;18.80;17.70;;;33.70;83.10;;;;;;5048921;28;21032;-68
2022/09/13 11:54:07;;;;;;;17.53;16.43;;;33.50;79.10;;;;;;5043130;28;21048;-69
2022/09/13 11:56:38;;;;;;;18.17;17.20;;;33.20;78.80;;;;;;5048895;28;20685;-69
2022/09/13 11:59:17;;;;;;;17.60;16.40;;;33.20;77.50;;;;;;5045302;28;20456;-68
2022/09/13 12:01:49;;;;;;;17.97;16.57;;;34.40;75.50;;;;;;5050474;28;20563;-69
2022/09/13 12:04:23;;;;;;;18.53;17.23;;;34.70;75.90;;;;;;5057667;28;22126;-68
2022/09/13 12:06:55;;;;;;;17.17;16.07;;;35.40;70.40;;;;;;5048993;28;21061;-69
2022/09/13 12:09:28;;;;;;;17.33;16.40;;;35.80;68.00;;;;;;5050011;28;20464;-67
2022/09/13 12:12:01;;;;;;;17.87;16.77;;;34.70;68.10;;;;;;5050101;28;20451;-69
2022/09/13 12:14:37;;;;;;;18.17;17.07;;;34.30;69.20;;;;;;5048049;28;20468;-68
2022/09/13 12:17:12;;;;;;;17.27;16.27;;;33.80;67.20;;;;;;5056146;28;20461;-67
2022/09/13 12:19:46;;;;;;;17.50;16.60;;;33.60;67.60;;;;;;5055804;28;20478;-68
2022/09/13 12:22:14;;;;;;;17.63;16.60;;;33.50;69.60;;;;;;5049352;28;20804;-68
2022/09/13 12:24:43;;;;;;;17.60;16.60;;;33.70;69.50;;;;;;5049383;28;20471;-68
2022/09/13 12:27:16;;;;;;;19.13;17.53;;;33.70;69.80;;;;;;5049788;28;20588;-68
2022/09/13 12:29:48;;;;;;;19.23;17.70;;;33.30;71.00;;;;;;5048255;28;20460;-68
2022/09/13 12:32:16;;;;;;;18.47;17.37;;;32.40;69.70;;;;;;5052556;28;20585;-67
2022/09/13 12:34:49;;;;;;;17.63;16.73;;;32.50;69.40;;;;;;5045720;28;20471;-67
2022/09/13 12:37:35;;;;;;;16.80;15.80;;;32.80;69.60;;;;;;5047563;28;20467;-68
2022/09/13 12:40:16;;;;;;;16.40;15.40;;;32.70;68.40;;;;;;5045337;28;20459;-67
2022/09/13 12:46:14;;;;;;;16.97;15.90;;;34.00;66.70;;;;;;5052004;28;20503;-69
2022/09/13 12:49:19;;;;;;;15.50;14.77;;;34.00;66.10;;;;;;5048615;28;20489;-68
2022/09/13 12:52:04;;;;;;;16.00;14.83;;;33.90;64.30;;;;;;5003547;28;20497;-68
2022/09/13 12:54:54;;;;;;;16.90;15.90;;;33.60;64.60;;;;;;5045801;28;21045;-69
2022/09/13 12:57:34;;;;;;;16.00;15.00;;;33.50;64.60;;;;;;5047057;28;20468;-68